NLWW

Hihifo Airport

Wallis Island, Samoa
TAF NLWW 221100Z 2212/2312 30005KT 9999 FEW030 TEMPO 2300/2312 SHRA FEW020TCU
Issued Valid From Valid To
Jan-22 @ 11:00 UTC
(6 hours ago)
Jan-22 @ 12:00 UTC
(5 hours ago)
Jan-23 @ 12:00 UTC
(in 19 hours)
Jan-22 @ 12:00 to Jan-23 @ 12:00
TAF NLWW 221100Z 2212/2312 30005KT 9999 FEW030
Wind Visibility Clouds
300° at 5 knots 10,000+ meters
  • Few at 3,000' AGL
Temporary Jan-23 @ 00:00 to Jan-23 @ 12:00
TEMPO 2300/2312 SHRA FEW020TCU
Clouds Conditions
  • Few at 2,000' AGL
  • Rain
TAF NLWW 221100Z 2212/2312 30005KT 9999 FEW030 TEMPO 2300/2312 SHRA FEW020TCU
Issued Jan-22 @ 11:00 UTC
(6 hours ago)
Valid From Jan-22 @ 12:00 UTC
(5 hours ago)
Valid To Jan-23 @ 12:00 UTC
(in 19 hours)
Jan-22 @ 12:00 - Jan-23 @ 12:00
Wind Visibility
300° at 5 knots 10,000+ meters
Clouds
  • Few at 3,000' AGL
Temporary Jan-23 @ 00:00 - Jan-23 @ 12:00
Clouds
  • Few at 2,000' AGL
Conditions
  • Rain